createdAt,value
2022-10-15T00:01:26.623Z,28.05
2022-10-15T00:03:54.672Z,27.35
2022-10-15T00:06:22.545Z,28.65
2022-10-15T00:08:49.984Z,29.33
2022-10-15T00:11:20.710Z,29.60
2022-10-15T00:13:48.477Z,28.75
2022-10-15T00:16:19.580Z,29.10
2022-10-15T00:18:47.534Z,27.73
2022-10-15T00:21:16.896Z,30.20
2022-10-15T00:23:44.955Z,27.02
2022-10-15T00:26:22.142Z,29.20
2022-10-15T00:28:52.205Z,26.67
2022-10-15T00:31:21.166Z,27.40
2022-10-15T00:33:50.855Z,26.77
2022-10-15T00:36:23.071Z,26.58
2022-10-15T00:38:51.375Z,25.52
2022-10-15T00:41:31.312Z,28.08
2022-10-15T00:44:23.757Z,28.33
2022-10-15T00:46:55.123Z,27.83
2022-10-15T00:49:28.000Z,26.83
2022-10-15T00:52:03.245Z,27.95
2022-10-15T00:54:37.610Z,27.45
2022-10-15T00:57:07.175Z,25.98
2022-10-15T00:59:38.976Z,24.10
2022-10-15T01:02:07.590Z,28.45
2022-10-15T01:04:35.942Z,28.60
2022-10-15T01:07:03.842Z,28.88
2022-10-15T01:09:31.342Z,27.75
2022-10-15T01:11:58.882Z,28.42
2022-10-15T01:14:44.848Z,29.17
2022-10-15T01:17:22.970Z,29.25
2022-10-15T01:20:12.286Z,29.17
2022-10-15T01:22:45.453Z,27.98
2022-10-15T01:25:18.810Z,29.85
2022-10-15T01:28:05.183Z,28.10
2022-10-15T01:31:05.541Z,28.92
2022-10-15T01:33:42.595Z,24.00
2022-10-15T01:36:21.597Z,30.23
2022-10-15T01:39:27.661Z,29.42
2022-10-15T01:42:00.778Z,30.13
2022-10-15T01:44:42.528Z,29.58
2022-10-15T01:47:19.546Z,30.90
2022-10-15T01:49:47.956Z,29.35
2022-10-15T01:52:19.681Z,31.33
2022-10-15T01:54:50.223Z,27.52
2022-10-15T01:57:21.249Z,31.17
2022-10-15T01:59:48.830Z,29.98
2022-10-15T02:02:16.292Z,29.63
2022-10-15T02:04:43.720Z,29.52
2022-10-15T02:07:36.601Z,27.30
2022-10-15T02:10:22.238Z,26.88
2022-10-15T02:13:29.604Z,28.48
2022-10-15T02:16:07.116Z,29.67
2022-10-15T02:18:49.161Z,28.35
2022-10-15T02:21:33.109Z,28.33
2022-10-15T02:24:08.456Z,28.30
2022-10-15T02:26:37.797Z,29.48
2022-10-15T02:29:08.013Z,29.88
2022-10-15T02:31:38.760Z,29.65
2022-10-15T02:34:09.358Z,30.30
2022-10-15T02:36:40.628Z,30.38
2022-10-15T02:39:12.333Z,28.50
2022-10-15T02:41:40.524Z,30.27
2022-10-15T02:44:09.554Z,29.13
2022-10-15T02:46:37.000Z,31.60
2022-10-15T02:49:04.442Z,29.98
2022-10-15T02:51:33.503Z,29.23
2022-10-15T02:54:04.894Z,30.52
2022-10-15T02:56:32.470Z,31.17
2022-10-15T02:59:00.042Z,30.88
2022-10-15T03:01:27.540Z,31.38
2022-10-15T03:03:57.526Z,30.00
2022-10-15T03:06:25.232Z,28.75
2022-10-15T03:08:53.087Z,29.08
2022-10-15T03:11:20.929Z,29.20
2022-10-15T03:13:48.497Z,28.83
2022-10-15T03:16:16.892Z,28.08
2022-10-15T03:18:44.521Z,28.25
2022-10-15T03:21:11.968Z,27.92
2022-10-15T03:23:39.691Z,27.50
2022-10-15T03:26:07.820Z,28.25
2022-10-15T03:28:36.755Z,27.35
2022-10-15T03:31:04.578Z,28.38
2022-10-15T03:33:32.353Z,27.52
2022-10-15T03:36:00.405Z,28.50
2022-10-15T03:38:28.136Z,28.55
2022-10-15T03:40:55.585Z,28.08
2022-10-15T03:43:25.742Z,26.48
2022-10-15T03:45:53.888Z,27.08
2022-10-15T03:48:21.535Z,23.70
2022-10-15T03:50:49.127Z,27.70
2022-10-15T03:53:16.547Z,28.63
2022-10-15T03:55:44.057Z,28.23
2022-10-15T03:58:11.871Z,28.17
2022-10-15T04:00:43.060Z,29.60
2022-10-15T04:03:10.612Z,28.85
2022-10-15T04:05:38.188Z,31.02
2022-10-15T04:08:05.857Z,29.25
2022-10-15T04:10:33.389Z,30.88
2022-10-15T04:13:00.797Z,29.42
2022-10-15T04:15:28.626Z,28.55
2022-10-15T04:17:56.201Z,29.40
2022-10-15T04:20:23.759Z,26.80
2022-10-15T04:22:51.248Z,29.13
2022-10-15T04:25:18.786Z,28.38
2022-10-15T04:27:46.184Z,26.50
2022-10-15T04:30:14.191Z,22.95
2022-10-15T04:32:41.626Z,24.80
2022-10-15T04:35:09.563Z,26.42
2022-10-15T04:37:37.296Z,27.42
2022-10-15T04:40:05.401Z,27.98
2022-10-15T04:42:32.877Z,22.33
2022-10-15T04:45:00.318Z,24.92
2022-10-15T04:47:27.736Z,25.58
2022-10-15T04:49:55.146Z,27.70
2022-10-15T04:52:22.600Z,26.83
2022-10-15T04:54:50.384Z,26.10
2022-10-15T04:57:17.785Z,26.20
2022-10-15T04:59:45.376Z,26.77
2022-10-15T05:02:12.996Z,26.02
2022-10-15T05:04:40.600Z,28.08
2022-10-15T05:07:08.121Z,28.40
2022-10-15T05:09:37.174Z,27.95
2022-10-15T05:12:04.892Z,28.30
2022-10-15T05:14:32.659Z,25.50
2022-10-15T05:17:00.340Z,23.83
2022-10-15T05:19:28.166Z,28.00
2022-10-15T05:21:55.530Z,25.50
2022-10-15T05:24:22.955Z,26.17
2022-10-15T05:26:50.463Z,27.58
2022-10-15T05:29:18.958Z,26.23
2022-10-15T05:31:46.434Z,24.50
2022-10-15T05:34:14.035Z,25.27
2022-10-15T05:36:41.533Z,27.08
2022-10-15T05:39:10.823Z,23.25
2022-10-15T05:41:38.264Z,26.38
2022-10-15T05:44:06.125Z,25.17
2022-10-15T05:46:33.670Z,25.63
2022-10-15T05:49:01.079Z,27.48
2022-10-15T05:51:29.031Z,27.23
2022-10-15T05:53:57.890Z,27.88
2022-10-15T05:56:26.335Z,29.20
2022-10-15T05:58:54.036Z,28.80
2022-10-15T06:01:21.491Z,28.73
2022-10-15T06:03:49.044Z,28.45
2022-10-15T06:06:19.442Z,29.80
2022-10-15T06:08:50.164Z,30.10
2022-10-15T06:11:18.168Z,29.95
2022-10-15T06:13:46.629Z,31.63
2022-10-15T06:16:18.024Z,32.65
2022-10-15T06:18:48.845Z,31.70
2022-10-15T06:21:16.398Z,32.58
2022-10-15T06:23:44.127Z,31.58
2022-10-15T06:26:11.647Z,32.83
2022-10-15T06:28:40.408Z,29.92
2022-10-15T06:31:08.434Z,34.53
2022-10-15T06:33:36.618Z,36.20
2022-10-15T06:36:13.967Z,35.72
2022-10-15T06:38:44.387Z,31.35
2022-10-15T06:41:11.884Z,33.33
2022-10-15T06:43:39.805Z,35.25
2022-10-15T06:46:07.323Z,35.28
2022-10-15T06:48:35.697Z,30.58
2022-10-15T06:51:04.281Z,35.67
2022-10-15T06:53:32.551Z,36.00
2022-10-15T06:56:04.246Z,36.50
2022-10-15T06:58:31.825Z,37.25
2022-10-15T07:01:04.501Z,36.10
2022-10-15T07:03:32.360Z,33.38
2022-10-15T07:06:08.013Z,36.05
2022-10-15T07:08:36.268Z,32.90
2022-10-15T07:11:05.895Z,35.35
2022-10-15T07:13:33.779Z,36.83
2022-10-15T07:16:09.309Z,36.17
2022-10-15T07:18:37.382Z,35.15
2022-10-15T07:21:06.671Z,36.33
2022-10-15T07:23:34.198Z,35.35
2022-10-15T07:26:02.183Z,34.60
2022-10-15T07:28:29.981Z,33.25
2022-10-15T07:31:05.961Z,32.20
2022-10-15T07:33:34.870Z,37.28
2022-10-15T07:36:08.609Z,36.20
2022-10-15T07:38:36.477Z,36.65
2022-10-15T07:41:05.084Z,37.55
2022-10-15T07:43:33.082Z,38.17
2022-10-15T07:46:00.903Z,38.78
2022-10-15T07:48:28.280Z,38.28
2022-10-15T07:51:01.717Z,39.17
2022-10-15T07:53:29.169Z,37.47
2022-10-15T07:56:11.545Z,39.50
2022-10-15T07:58:39.884Z,39.17
2022-10-15T08:01:09.540Z,38.17
2022-10-15T08:03:38.320Z,38.30
2022-10-15T08:06:07.841Z,39.75
2022-10-15T08:08:36.152Z,37.50
2022-10-15T08:11:11.285Z,40.25
2022-10-15T08:13:41.466Z,39.95
2022-10-15T08:16:14.313Z,40.33
2022-10-15T08:18:41.835Z,38.85
2022-10-15T08:21:09.379Z,42.17
2022-10-15T08:23:37.073Z,40.65
2022-10-15T08:26:05.086Z,39.40
2022-10-15T08:28:34.084Z,38.95
2022-10-15T08:31:05.563Z,39.20
2022-10-15T08:33:38.438Z,41.35
2022-10-15T08:36:07.441Z,39.83
2022-10-15T08:38:35.224Z,38.47
2022-10-15T08:41:06.586Z,39.35
2022-10-15T08:43:40.895Z,38.80
2022-10-15T08:48:53.580Z,35.05
2022-10-15T08:51:44.774Z,36.58
2022-10-15T08:54:16.736Z,37.53
2022-10-15T08:56:47.777Z,36.83
2022-10-15T09:00:01.196Z,37.70
2022-10-15T09:02:42.749Z,36.05
2022-10-15T09:05:36.627Z,37.13
2022-10-15T09:08:18.292Z,40.00
2022-10-15T09:11:12.981Z,37.75
2022-10-15T09:13:44.637Z,36.65
2022-10-15T09:16:22.399Z,36.00
2022-10-15T09:18:55.229Z,37.53
2022-10-15T09:21:26.062Z,35.65
2022-10-15T09:23:59.059Z,34.63
2022-10-15T09:26:49.589Z,34.80
2022-10-15T09:29:58.299Z,36.55
2022-10-15T09:32:36.487Z,31.10
2022-10-15T09:35:35.526Z,33.08
2022-10-15T09:38:06.247Z,34.65
2022-10-15T09:40:44.625Z,33.78
2022-10-15T09:43:14.152Z,33.13
2022-10-15T09:45:41.965Z,33.92
2022-10-15T09:48:17.470Z,33.83
2022-10-15T09:50:53.683Z,32.85
2022-10-15T09:53:37.036Z,32.00
2022-10-15T09:56:13.059Z,32.85
2022-10-15T09:58:56.093Z,33.00
2022-10-15T10:01:25.965Z,31.20
2022-10-15T10:04:14.897Z,31.98
2022-10-15T10:06:58.126Z,30.75
2022-10-15T10:09:33.127Z,30.92
2022-10-15T10:12:07.521Z,32.72
2022-10-15T10:14:47.098Z,33.03
2022-10-15T10:17:21.132Z,32.63
2022-10-15T10:20:16.983Z,31.48
2022-10-15T10:23:01.862Z,31.95
2022-10-15T10:25:29.713Z,30.63
2022-10-15T10:28:25.878Z,31.70
2022-10-15T10:31:03.680Z,32.75
2022-10-15T10:33:36.090Z,30.85
2022-10-15T10:36:06.045Z,31.27
2022-10-15T10:38:40.898Z,32.25
2022-10-15T10:41:12.345Z,31.90
2022-10-15T10:43:41.710Z,32.42
2022-10-15T10:46:15.256Z,31.80
2022-10-15T10:48:48.870Z,30.42
2022-10-15T10:51:28.293Z,32.83
2022-10-15T10:54:07.016Z,31.80
2022-10-15T10:56:37.945Z,32.13
2022-10-15T10:59:35.919Z,31.50
2022-10-15T11:02:06.559Z,31.48
2022-10-15T11:04:36.309Z,30.52
2022-10-15T11:07:32.070Z,31.88
2022-10-15T11:10:14.111Z,31.67
2022-10-15T11:13:28.921Z,32.20
2022-10-15T11:16:08.269Z,32.55
2022-10-15T11:18:49.780Z,31.25
2022-10-15T11:21:29.223Z,30.92
2022-10-15T11:24:48.527Z,32.40
2022-10-15T11:27:28.597Z,31.95
2022-10-15T11:30:34.938Z,32.22
2022-10-15T11:33:19.484Z,32.55
2022-10-15T11:36:11.115Z,32.72
2022-10-15T11:38:58.130Z,33.03
2022-10-15T11:41:38.059Z,32.20
2022-10-15T11:44:19.179Z,32.53
2022-10-15T11:47:09.981Z,30.30
2022-10-15T11:50:03.469Z,30.98
2022-10-15T11:52:31.905Z,31.27
2022-10-15T11:55:32.069Z,31.45
2022-10-15T11:58:03.148Z,31.35
2022-10-15T12:00:38.889Z,29.83
2022-10-15T12:03:24.033Z,31.77
2022-10-15T12:06:04.471Z,31.83
2022-10-15T12:08:36.225Z,31.98
2022-10-15T12:11:13.277Z,31.35
2022-10-15T12:14:14.675Z,30.77
2022-10-15T12:16:59.118Z,31.40
2022-10-15T12:19:34.413Z,31.80
2022-10-15T12:22:11.855Z,31.58
2022-10-15T12:24:44.534Z,33.13
2022-10-15T12:27:18.843Z,32.10
2022-10-15T12:29:48.393Z,33.53
2022-10-15T12:32:27.517Z,31.70
2022-10-15T12:35:04.576Z,31.83
2022-10-15T12:37:36.166Z,31.40
2022-10-15T12:40:23.099Z,32.42
2022-10-15T12:42:53.730Z,31.42
2022-10-15T12:45:24.882Z,32.30
2022-10-15T12:48:16.520Z,31.80
2022-10-15T12:50:44.159Z,30.15
2022-10-15T12:53:28.973Z,30.63
2022-10-15T12:56:35.831Z,32.45
2022-10-15T12:59:03.329Z,31.33
2022-10-15T13:01:52.021Z,31.83
2022-10-15T13:04:20.348Z,29.52
2022-10-15T13:06:48.115Z,30.65
2022-10-15T13:09:30.626Z,30.10
2022-10-15T13:12:00.317Z,28.95
2022-10-15T13:14:40.192Z,29.35
2022-10-15T13:17:19.466Z,27.85
2022-10-15T13:19:55.911Z,28.02
2022-10-15T13:22:26.289Z,29.17
2022-10-15T13:24:56.242Z,28.67
2022-10-15T13:27:33.969Z,30.05
2022-10-15T13:30:13.010Z,28.98
2022-10-15T13:32:52.396Z,28.75
2022-10-15T13:35:23.758Z,30.35
2022-10-15T13:37:51.297Z,28.50
2022-10-15T13:40:25.676Z,29.25
2022-10-15T13:43:07.246Z,28.58
2022-10-15T13:45:34.809Z,27.73
2022-10-15T13:48:02.556Z,28.90
2022-10-15T13:50:40.469Z,28.77
2022-10-15T13:53:11.209Z,28.90
2022-10-15T13:55:44.273Z,29.17
2022-10-15T13:58:34.725Z,27.98
2022-10-15T14:01:18.983Z,27.83
2022-10-15T14:03:51.566Z,28.58
2022-10-15T14:06:30.153Z,28.20
2022-10-15T14:09:00.635Z,27.30
2022-10-15T14:11:30.028Z,27.85
2022-10-15T14:13:59.251Z,27.17
2022-10-15T14:16:46.682Z,28.08
2022-10-15T14:19:19.830Z,27.65
2022-10-15T14:21:51.926Z,28.77
2022-10-15T14:24:23.419Z,27.98
2022-10-15T14:26:51.355Z,26.58
2022-10-15T14:29:35.312Z,27.45
2022-10-15T14:32:03.129Z,28.05
2022-10-15T14:34:35.474Z,27.30
2022-10-15T14:37:04.017Z,27.85
2022-10-15T14:39:35.073Z,27.25
2022-10-15T14:42:26.156Z,27.55
2022-10-15T14:44:53.848Z,27.63
2022-10-15T14:47:25.281Z,27.95
2022-10-15T14:50:00.860Z,26.58
2022-10-15T14:52:30.680Z,28.55
2022-10-15T14:55:03.187Z,28.48
2022-10-15T14:57:35.699Z,28.02
2022-10-15T15:00:12.065Z,28.65
2022-10-15T15:02:39.526Z,28.63
2022-10-15T15:05:13.329Z,28.02
2022-10-15T15:07:41.145Z,28.40
2022-10-15T15:10:10.892Z,28.73
2022-10-15T15:12:39.799Z,27.60
2022-10-15T15:15:19.030Z,29.15
2022-10-15T15:17:48.666Z,29.02
2022-10-15T15:20:20.375Z,28.25
2022-10-15T15:22:50.951Z,28.27
2022-10-15T15:25:30.377Z,29.80
2022-10-15T15:27:58.434Z,29.10
2022-10-15T15:30:27.378Z,29.02
2022-10-15T15:32:55.210Z,29.90
2022-10-15T15:35:22.683Z,28.95
2022-10-15T15:37:50.283Z,28.65
2022-10-15T15:40:18.194Z,29.38
2022-10-15T15:42:46.301Z,29.48
2022-10-15T15:45:22.794Z,30.27
2022-10-15T15:47:51.017Z,29.73
2022-10-15T15:50:20.217Z,29.48
2022-10-15T15:52:48.249Z,29.65
2022-10-15T15:55:16.081Z,28.58
2022-10-15T15:57:45.373Z,30.05
2022-10-15T16:00:13.606Z,29.05
2022-10-15T16:02:41.394Z,31.88
2022-10-15T16:05:11.366Z,30.70
2022-10-15T16:07:39.415Z,30.27
2022-10-15T16:10:09.903Z,30.83
2022-10-15T16:12:37.960Z,30.48
2022-10-15T16:15:07.920Z,30.02
2022-10-15T16:17:37.989Z,30.25
2022-10-15T16:20:06.104Z,29.52
2022-10-15T16:22:33.883Z,30.67
2022-10-15T16:25:01.343Z,29.02
2022-10-15T16:27:29.167Z,28.83
2022-10-15T16:29:56.732Z,28.73
2022-10-15T16:32:24.331Z,29.02
2022-10-15T16:34:51.825Z,27.98
2022-10-15T16:37:19.669Z,27.35
2022-10-15T16:39:47.251Z,27.85
2022-10-15T16:42:14.823Z,25.85
2022-10-15T16:44:42.356Z,25.02
2022-10-15T16:47:09.848Z,25.70
2022-10-15T16:49:37.812Z,24.85
2022-10-15T16:52:05.501Z,24.63
2022-10-15T16:54:33.302Z,24.58
2022-10-15T16:57:00.796Z,23.73
2022-10-15T16:59:28.387Z,22.52
2022-10-15T17:01:56.299Z,23.42
2022-10-15T17:04:24.107Z,21.52
2022-10-15T17:06:51.871Z,22.13
2022-10-15T17:09:19.401Z,22.42
2022-10-15T17:11:47.527Z,21.48
2022-10-15T17:14:16.821Z,20.52
2022-10-15T17:16:52.471Z,21.10
2022-10-15T17:19:23.703Z,20.25
2022-10-15T17:21:52.550Z,20.02
2022-10-15T17:24:20.016Z,19.48
2022-10-15T17:26:48.207Z,18.52
2022-10-15T17:29:20.563Z,20.10
2022-10-15T17:31:48.964Z,19.30
2022-10-15T17:34:17.420Z,18.63
2022-10-15T17:36:47.520Z,18.98
2022-10-15T17:39:18.274Z,18.73
2022-10-15T17:41:46.345Z,18.55
2022-10-15T17:44:14.711Z,19.30
2022-10-15T17:46:42.595Z,20.20
2022-10-15T17:49:11.294Z,17.98
2022-10-15T17:51:38.874Z,18.95
2022-10-15T17:54:06.546Z,19.33
2022-10-15T17:56:38.651Z,19.17
2022-10-15T17:59:09.476Z,19.40
2022-10-15T18:01:57.396Z,18.88
2022-10-15T18:04:25.995Z,19.35
2022-10-15T18:06:54.880Z,19.85
2022-10-15T18:09:23.079Z,18.42
2022-10-15T18:11:50.821Z,19.35
2022-10-15T18:16:46.309Z,18.75
2022-10-15T18:19:14.512Z,19.00
2022-10-15T18:21:46.898Z,19.42
2022-10-15T18:24:21.723Z,19.13
2022-10-15T18:26:53.337Z,18.73
2022-10-15T18:29:20.860Z,20.67
2022-10-15T18:31:52.197Z,20.15
2022-10-15T18:34:21.731Z,19.63
2022-10-15T18:36:49.302Z,19.20
2022-10-15T18:39:16.936Z,19.48
2022-10-15T18:44:17.247Z,19.85
2022-10-15T18:46:45.706Z,18.80
2022-10-15T18:49:15.392Z,18.83
2022-10-15T18:51:43.564Z,18.30
2022-10-15T18:54:11.106Z,18.50
2022-10-15T18:56:39.603Z,18.27
2022-10-15T18:59:07.145Z,17.52
2022-10-15T19:01:41.871Z,17.63
2022-10-15T19:04:13.208Z,18.60
2022-10-15T19:06:43.898Z,18.40
2022-10-15T19:09:14.301Z,19.05
2022-10-15T19:11:44.027Z,18.90
2022-10-15T19:14:12.049Z,19.17
2022-10-15T19:16:39.594Z,18.65
2022-10-15T19:19:07.721Z,18.17
2022-10-15T19:21:37.614Z,18.95
2022-10-15T19:24:05.468Z,18.67
2022-10-15T19:26:33.726Z,18.92
2022-10-15T19:29:01.384Z,19.85
2022-10-15T19:31:35.912Z,18.80
2022-10-15T19:34:03.516Z,20.00
2022-10-15T19:36:33.670Z,19.10
2022-10-15T19:39:04.436Z,19.55
2022-10-15T19:41:32.459Z,19.17
2022-10-15T19:43:59.955Z,18.80
2022-10-15T19:46:27.391Z,20.35
2022-10-15T19:48:54.895Z,19.65
2022-10-15T19:51:22.344Z,18.98
2022-10-15T19:53:54.542Z,20.65
2022-10-15T19:56:22.783Z,21.55
2022-10-15T19:58:56.487Z,22.25
2022-10-15T20:01:25.475Z,23.25
2022-10-15T20:03:53.887Z,22.80
2022-10-15T20:06:21.921Z,22.92
2022-10-15T20:08:49.552Z,23.52
2022-10-15T20:11:17.456Z,23.98
2022-10-15T20:13:45.143Z,23.40
2022-10-15T20:16:18.464Z,24.65
2022-10-15T20:18:48.430Z,26.48
2022-10-15T20:21:17.228Z,26.50
2022-10-15T20:23:46.965Z,24.92
2022-10-15T20:26:16.234Z,27.08
2022-10-15T20:28:45.710Z,28.05
2022-10-15T20:31:20.515Z,29.73
2022-10-15T20:33:48.064Z,28.02
2022-10-15T20:36:22.543Z,29.35
2022-10-15T20:38:51.983Z,27.77
2022-10-15T20:41:20.028Z,29.33
2022-10-15T20:43:52.060Z,29.27
2022-10-15T20:46:28.098Z,29.92
2022-10-15T20:48:58.650Z,31.38
2022-10-15T20:51:28.597Z,31.27
2022-10-15T20:53:58.817Z,31.00
2022-10-15T20:56:26.368Z,31.38
2022-10-15T20:58:53.788Z,32.38
2022-10-15T21:01:21.866Z,30.13
2022-10-15T21:03:49.489Z,32.47
2022-10-15T21:06:17.000Z,33.03
2022-10-15T21:08:44.376Z,32.15
2022-10-15T21:11:11.801Z,32.63
2022-10-15T21:13:42.369Z,30.38
2022-10-15T21:16:09.991Z,33.05
2022-10-15T21:18:38.254Z,33.22
2022-10-15T21:21:08.466Z,32.88
2022-10-15T21:23:36.725Z,31.90
2022-10-15T21:26:07.764Z,31.45
2022-10-15T21:28:36.518Z,31.55
2022-10-15T21:31:10.041Z,30.63
2022-10-15T21:33:38.306Z,30.83
2022-10-15T21:36:13.478Z,28.90
2022-10-15T21:38:42.020Z,28.92
2022-10-15T21:41:09.607Z,29.75
2022-10-15T21:43:40.145Z,29.42
2022-10-15T21:46:09.680Z,28.83
2022-10-15T21:48:38.365Z,28.25
2022-10-15T21:51:10.269Z,29.45
2022-10-15T21:53:37.969Z,30.25
2022-10-15T21:56:05.837Z,30.35
2022-10-15T21:58:33.267Z,28.83
2022-10-15T22:01:20.963Z,29.45
2022-10-15T22:03:49.987Z,29.45
2022-10-15T22:06:18.940Z,27.80
2022-10-15T22:08:46.771Z,28.80
2022-10-15T22:11:18.631Z,28.65
2022-10-15T22:13:48.311Z,27.52
2022-10-15T22:16:17.753Z,27.58
2022-10-15T22:18:45.933Z,26.67
2022-10-15T22:21:18.591Z,26.98
2022-10-15T22:23:51.981Z,26.48
2022-10-15T22:26:21.800Z,26.25
2022-10-15T22:28:49.349Z,26.25
2022-10-15T22:31:17.263Z,26.42
2022-10-15T22:33:46.343Z,25.08
2022-10-15T22:36:17.026Z,25.42
2022-10-15T22:38:46.762Z,26.52
2022-10-15T22:41:15.680Z,25.27
2022-10-15T22:43:43.656Z,24.10
2022-10-15T22:46:11.742Z,25.35
2022-10-15T22:48:41.306Z,24.48
2022-10-15T22:51:12.601Z,25.33
2022-10-15T22:53:40.878Z,24.00
2022-10-15T22:56:16.839Z,24.80
2022-10-15T22:58:45.046Z,22.98
2022-10-15T23:01:22.044Z,24.25
2022-10-15T23:03:52.398Z,23.70
2022-10-15T23:06:21.581Z,23.63
2022-10-15T23:08:50.561Z,24.17
2022-10-15T23:11:21.140Z,23.08
2022-10-15T23:13:52.525Z,24.90
2022-10-15T23:16:22.116Z,23.58
2022-10-15T23:18:56.929Z,23.48
2022-10-15T23:21:34.109Z,23.65
2022-10-15T23:24:02.803Z,24.67
2022-10-15T23:26:31.073Z,23.23
2022-10-15T23:29:00.014Z,23.58
2022-10-15T23:31:29.479Z,24.23
2022-10-15T23:33:57.754Z,24.00
2022-10-15T23:36:27.189Z,23.60
2022-10-15T23:38:59.213Z,24.13
2022-10-15T23:41:27.889Z,23.40
2022-10-15T23:43:55.898Z,24.45
2022-10-15T23:46:23.523Z,23.40
2022-10-15T23:48:51.828Z,24.35
2022-10-15T23:51:25.163Z,23.38
2022-10-15T23:53:54.392Z,23.08
2022-10-15T23:56:22.711Z,25.38
2022-10-15T23:58:55.700Z,24.10
